Time;durP1;ratioP1;P1;durP2;ratioP2;P2;SDS_P1;SDS_P2;PMS_P1;PMS_P2;Temp;Humidity;BMP_temperature;BMP_pressure;BME280_temperature;BME280_humidity;BME280_pressure;Samples;Min_cycle;Max_cycle;Signal;HPM_P1;HPM_P2
2023/12/06 00:01:21;;;;;;;39.27;29.00;;;;;;;;;;5029225;28;20486;-67
2023/12/06 00:03:46;;;;;;;36.27;27.53;;;;;;;;;;5029764;28;20398;-67
2023/12/06 00:06:11;;;;;;;34.83;26.13;;;;;;;;;;5028014;28;20426;-66
2023/12/06 00:08:36;;;;;;;37.20;27.87;;;;;;;;;;5029732;28;20410;-67
2023/12/06 00:11:02;;;;;;;35.40;27.50;;;;;;;;;;5046981;28;20409;-67
2023/12/06 00:13:27;;;;;;;37.37;28.03;;;;;;;;;;5032534;28;20430;-67
2023/12/06 00:15:52;;;;;;;34.40;25.93;;;;;;;;;;5029486;28;20407;-67
2023/12/06 00:18:17;;;;;;;36.50;26.97;;;;;;;;;;5028278;28;20421;-67
2023/12/06 00:20:43;;;;;;;35.83;27.03;;;;;;;;;;5029705;28;20488;-67
2023/12/06 00:23:08;;;;;;;35.20;26.67;;;;;;;;;;5029289;28;20415;-67
2023/12/06 00:25:33;;;;;;;36.63;26.80;;;;;;;;;;5028749;28;20478;-67
2023/12/06 00:27:59;;;;;;;35.17;27.17;;;;;;;;;;5029453;28;20414;-67
2023/12/06 00:30:24;;;;;;;34.27;25.97;;;;;;;;;;5029156;28;20426;-67
2023/12/06 00:32:49;;;;;;;32.37;25.03;;;;;;;;;;5032590;28;20926;-67
2023/12/06 00:35:15;;;;;;;31.60;24.60;;;;;;;;;;5033181;28;20486;-67
2023/12/06 00:37:40;;;;;;;32.60;24.43;;;;;;;;;;5033556;28;20398;-67
2023/12/06 00:40:06;;;;;;;30.67;23.67;;;;;;;;;;5032203;28;20437;-68
2023/12/06 00:42:31;;;;;;;33.33;24.47;;;;;;;;;;5033330;28;20506;-67
2023/12/06 00:44:56;;;;;;;31.33;24.10;;;;;;;;;;5033494;28;20441;-67
2023/12/06 00:47:21;;;;;;;28.40;22.52;;;;;;;;;;5031910;28;20541;-67
2023/12/06 00:49:47;;;;;;;29.97;23.03;;;;;;;;;;5033405;28;20457;-67
2023/12/06 00:52:12;;;;;;;31.10;23.67;;;;;;;;;;5032939;28;20386;-67
2023/12/06 00:54:37;;;;;;;29.90;23.73;;;;;;;;;;5032679;28;20403;-67
2023/12/06 00:57:03;;;;;;;27.83;22.37;;;;;;;;;;5032805;28;20549;-67
2023/12/06 00:59:28;;;;;;;27.67;22.03;;;;;;;;;;5033441;28;20390;-67
2023/12/06 01:01:53;;;;;;;28.20;22.90;;;;;;;;;;5032235;28;20395;-67
2023/12/06 01:04:19;;;;;;;29.57;23.03;;;;;;;;;;5032771;28;20902;-67
2023/12/06 01:06:44;;;;;;;29.23;22.60;;;;;;;;;;5032734;28;20451;-67
2023/12/06 01:09:09;;;;;;;28.10;22.53;;;;;;;;;;5031896;28;20391;-67
2023/12/06 01:11:34;;;;;;;26.43;21.70;;;;;;;;;;5032798;28;20806;-68
2023/12/06 01:14:00;;;;;;;28.40;22.50;;;;;;;;;;5032866;28;20487;-68
2023/12/06 01:16:25;;;;;;;26.30;20.73;;;;;;;;;;5031781;28;20886;-68
2023/12/06 01:18:50;;;;;;;28.93;22.53;;;;;;;;;;5032602;28;20399;-68
2023/12/06 01:21:16;;;;;;;27.40;22.73;;;;;;;;;;5032398;28;20387;-67
2023/12/06 01:23:41;;;;;;;28.90;23.47;;;;;;;;;;5032084;28;20402;-68
2023/12/06 01:26:06;;;;;;;29.03;22.87;;;;;;;;;;5031999;28;20419;-68
2023/12/06 01:28:31;;;;;;;27.23;22.17;;;;;;;;;;5031735;28;20403;-68
2023/12/06 01:30:57;;;;;;;26.70;22.00;;;;;;;;;;5032628;28;20470;-68
2023/12/06 01:33:22;;;;;;;28.27;22.95;;;;;;;;;;5032013;28;20383;-68
2023/12/06 01:35:47;;;;;;;29.63;23.00;;;;;;;;;;5031749;28;20400;-68
2023/12/06 01:38:12;;;;;;;28.23;22.60;;;;;;;;;;5032013;28;20898;-68
2023/12/06 01:40:39;;;;;;;26.13;20.87;;;;;;;;;;5032622;28;20418;-68
2023/12/06 01:43:05;;;;;;;26.48;20.77;;;;;;;;;;5029100;28;20404;-68
2023/12/06 01:45:30;;;;;;;28.57;22.37;;;;;;;;;;5032330;28;20383;-68
2023/12/06 01:47:55;;;;;;;28.50;22.97;;;;;;;;;;5031964;28;20419;-68
2023/12/06 01:50:21;;;;;;;25.43;21.27;;;;;;;;;;5030013;28;20402;-68
2023/12/06 01:52:46;;;;;;;26.63;21.20;;;;;;;;;;5032330;28;20395;-68
2023/12/06 01:55:11;;;;;;;26.83;21.90;;;;;;;;;;5031887;28;20450;-68
2023/12/06 01:57:37;;;;;;;27.63;22.30;;;;;;;;;;5031351;28;20389;-68
2023/12/06 02:00:04;;;;;;;26.77;21.37;;;;;;;;;;5031789;28;20401;-68
2023/12/06 02:02:29;;;;;;;28.33;22.88;;;;;;;;;;5019753;28;20723;-68
2023/12/06 02:04:54;;;;;;;27.57;21.97;;;;;;;;;;5029866;28;21020;-68
2023/12/06 02:07:19;;;;;;;30.00;22.87;;;;;;;;;;5031204;28;20511;-68
2023/12/06 02:09:45;;;;;;;28.73;22.47;;;;;;;;;;5030616;28;20778;-68
2023/12/06 02:12:10;;;;;;;28.50;22.33;;;;;;;;;;5030246;28;20988;-67
2023/12/06 02:14:35;;;;;;;27.80;22.30;;;;;;;;;;5032013;28;20405;-68
2023/12/06 02:17:02;;;;;;;29.23;22.93;;;;;;;;;;5031470;28;20391;-68
2023/12/06 02:19:27;;;;;;;28.02;22.13;;;;;;;;;;5029535;28;20387;-68
2023/12/06 02:21:52;;;;;;;27.83;22.17;;;;;;;;;;5031762;28;20461;-67
2023/12/06 02:24:18;;;;;;;28.03;22.43;;;;;;;;;;5029946;28;20430;-68
2023/12/06 02:26:43;;;;;;;27.40;21.50;;;;;;;;;;5030619;28;20419;-68
2023/12/06 02:29:08;;;;;;;29.63;22.70;;;;;;;;;;5030885;28;20413;-68
2023/12/06 02:31:34;;;;;;;29.77;23.43;;;;;;;;;;5031568;28;20402;-67
2023/12/06 02:33:59;;;;;;;29.30;23.23;;;;;;;;;;5030367;28;20405;-68
2023/12/06 02:36:25;;;;;;;30.27;22.93;;;;;;;;;;5030971;28;20917;-67
2023/12/06 02:38:50;;;;;;;30.30;22.80;;;;;;;;;;5029196;28;20856;-68
2023/12/06 02:41:16;;;;;;;28.50;23.43;;;;;;;;;;5030814;28;20426;-68
2023/12/06 02:43:42;;;;;;;30.02;23.15;;;;;;;;;;5031035;28;20445;-68
2023/12/06 02:46:07;;;;;;;28.85;23.52;;;;;;;;;;5030101;28;20411;-68
2023/12/06 02:48:33;;;;;;;29.70;23.60;;;;;;;;;;5031153;28;20403;-67
2023/12/06 02:50:58;;;;;;;29.47;23.53;;;;;;;;;;5031051;28;20442;-67
2023/12/06 02:53:23;;;;;;;30.20;23.90;;;;;;;;;;5029390;28;20399;-67
2023/12/06 02:55:49;;;;;;;29.83;24.00;;;;;;;;;;5030955;28;20481;-67
2023/12/06 02:58:14;;;;;;;27.93;22.63;;;;;;;;;;5030416;28;20771;-68
2023/12/06 03:00:39;;;;;;;31.20;23.83;;;;;;;;;;5030281;28;20750;-68
2023/12/06 03:03:05;;;;;;;31.85;23.42;;;;;;;;;;5030415;28;20411;-68
2023/12/06 03:05:30;;;;;;;27.93;22.63;;;;;;;;;;5030708;28;20890;-68
2023/12/06 03:07:55;;;;;;;30.50;23.87;;;;;;;;;;5029764;28;20408;-68
2023/12/06 03:10:20;;;;;;;28.93;23.00;;;;;;;;;;5030206;28;20442;-68
2023/12/06 03:12:46;;;;;;;28.50;22.17;;;;;;;;;;5030842;28;20396;-68
2023/12/06 03:15:11;;;;;;;28.50;22.23;;;;;;;;;;5029311;28;20403;-68
2023/12/06 03:17:36;;;;;;;30.07;23.50;;;;;;;;;;5030820;28;20403;-68
2023/12/06 03:20:03;;;;;;;27.77;22.00;;;;;;;;;;5030075;28;20470;-68
2023/12/06 03:22:29;;;;;;;28.25;21.45;;;;;;;;;;5029865;28;20399;-68
2023/12/06 03:24:54;;;;;;;25.67;20.93;;;;;;;;;;5030473;28;20406;-68
2023/12/06 03:27:19;;;;;;;27.37;21.30;;;;;;;;;;5029867;28;20390;-68
2023/12/06 03:29:45;;;;;;;25.80;20.27;;;;;;;;;;5029638;28;20899;-68
2023/12/06 03:32:10;;;;;;;26.90;20.95;;;;;;;;;;5029843;28;20399;-68
2023/12/06 03:34:35;;;;;;;25.60;20.27;;;;;;;;;;5030343;28;20395;-68
2023/12/06 03:37:02;;;;;;;24.97;20.13;;;;;;;;;;5029189;28;20391;-69
2023/12/06 03:39:27;;;;;;;28.67;21.60;;;;;;;;;;5030166;28;20456;-68
2023/12/06 03:41:53;;;;;;;24.60;19.67;;;;;;;;;;5030273;28;20399;-68
2023/12/06 03:44:18;;;;;;;27.38;20.77;;;;;;;;;;5028742;28;20763;-68
2023/12/06 03:46:44;;;;;;;27.30;21.60;;;;;;;;;;5030213;28;20772;-68
2023/12/06 03:49:09;;;;;;;27.60;20.73;;;;;;;;;;5029140;28;20758;-68
2023/12/06 03:51:34;;;;;;;26.65;20.88;;;;;;;;;;5030011;28;20396;-68
2023/12/06 03:53:59;;;;;;;27.67;21.07;;;;;;;;;;5030122;28;20851;-68
2023/12/06 03:56:25;;;;;;;27.13;21.10;;;;;;;;;;5028928;28;20418;-68
2023/12/06 03:58:51;;;;;;;27.00;21.00;;;;;;;;;;5030380;28;20405;-69
2023/12/06 04:01:16;;;;;;;22.77;18.67;;;;;;;;;;5029316;28;20395;-70
2023/12/06 04:03:41;;;;;;;24.27;19.10;;;;;;;;;;5029277;28;20429;-70
2023/12/06 04:06:10;;;;;;;26.37;20.53;;;;;;;;;;5028820;28;20417;-70
2023/12/06 04:08:35;;;;;;;27.88;21.02;;;;;;;;;;5029871;28;20913;-70
2023/12/06 04:11:01;;;;;;;27.03;19.70;;;;;;;;;;5028702;28;20399;-69
2023/12/06 04:13:27;;;;;;;24.03;19.23;;;;;;;;;;5029665;28;20431;-70
2023/12/06 04:15:52;;;;;;;25.03;19.83;;;;;;;;;;5029834;28;20426;-70
2023/12/06 04:18:17;;;;;;;24.73;19.10;;;;;;;;;;5028551;28;20411;-70
2023/12/06 04:20:43;;;;;;;24.65;19.88;;;;;;;;;;5029864;28;20790;-70
2023/12/06 04:23:08;;;;;;;24.87;19.80;;;;;;;;;;5029152;28;20457;-70
2023/12/06 04:25:33;;;;;;;26.57;20.43;;;;;;;;;;5029064;28;20395;-70
2023/12/06 04:27:59;;;;;;;24.70;19.50;;;;;;;;;;5029698;28;20418;-69
2023/12/06 04:30:24;;;;;;;27.13;20.53;;;;;;;;;;5029047;28;20482;-69
2023/12/06 04:32:49;;;;;;;24.10;19.53;;;;;;;;;;5028893;28;20469;-69
2023/12/06 04:35:14;;;;;;;28.60;21.87;;;;;;;;;;5029408;28;20410;-69
2023/12/06 04:37:40;;;;;;;26.03;20.83;;;;;;;;;;5029438;28;20505;-69
2023/12/06 04:40:06;;;;;;;26.27;20.83;;;;;;;;;;5028376;28;20402;-69
2023/12/06 04:42:31;;;;;;;26.97;21.27;;;;;;;;;;5029887;28;20441;-69
2023/12/06 04:44:56;;;;;;;30.38;23.38;;;;;;;;;;5029605;28;20403;-69
2023/12/06 04:47:21;;;;;;;25.13;20.20;;;;;;;;;;5028330;28;20897;-69
2023/12/06 04:49:47;;;;;;;30.20;22.40;;;;;;;;;;5029760;28;20399;-68
2023/12/06 04:52:13;;;;;;;26.83;21.40;;;;;;;;;;5028875;28;20422;-68
2023/12/06 04:54:38;;;;;;;28.53;22.60;;;;;;;;;;5028880;28;20403;-69
2023/12/06 04:57:04;;;;;;;25.63;20.70;;;;;;;;;;5029108;28;20410;-68
2023/12/06 04:59:29;;;;;;;27.13;20.97;;;;;;;;;;5029052;28;20399;-68
2023/12/06 05:01:54;;;;;;;25.67;20.43;;;;;;;;;;5029488;28;20407;-69
2023/12/06 05:04:22;;;;;;;25.77;20.37;;;;;;;;;;5027636;28;20403;-68
2023/12/06 05:06:47;;;;;;;24.77;19.40;;;;;;;;;;5028418;28;20439;-69
2023/12/06 05:09:13;;;;;;;24.30;19.27;;;;;;;;;;5028776;28;20427;-69
2023/12/06 05:11:38;;;;;;;24.20;19.13;;;;;;;;;;5029629;28;20403;-68
2023/12/06 05:14:04;;;;;;;24.67;19.03;;;;;;;;;;5028138;28;20431;-69
2023/12/06 05:16:29;;;;;;;23.83;19.05;;;;;;;;;;5029338;28;20774;-69
2023/12/06 05:18:54;;;;;;;20.47;16.43;;;;;;;;;;5022671;28;20781;-69
2023/12/06 05:21:20;;;;;;;19.63;16.00;;;;;;;;;;5013013;28;20404;-69
2023/12/06 05:23:45;;;;;;;20.15;15.55;;;;;;;;;;5023248;28;20403;-70
2023/12/06 05:26:10;;;;;;;21.70;17.37;;;;;;;;;;4999883;28;20744;-70
2023/12/06 05:28:36;;;;;;;23.90;18.03;;;;;;;;;;5013898;28;20399;-70
2023/12/06 05:31:01;;;;;;;19.43;16.23;;;;;;;;;;5014592;28;20446;-70
2023/12/06 05:33:27;;;;;;;19.38;16.00;;;;;;;;;;5017243;28;20971;-70
2023/12/06 05:35:52;;;;;;;20.00;16.40;;;;;;;;;;5013112;28;20970;-70
2023/12/06 05:38:18;;;;;;;20.07;16.57;;;;;;;;;;5002209;28;20830;-70
2023/12/06 05:40:43;;;;;;;18.80;15.40;;;;;;;;;;5003588;28;20405;-70
2023/12/06 05:43:08;;;;;;;19.03;14.43;;;;;;;;;;5001649;28;20585;-70
2023/12/06 05:45:34;;;;;;;18.20;14.73;;;;;;;;;;5003863;28;20967;-70
2023/12/06 05:47:59;;;;;;;17.17;13.73;;;;;;;;;;5002237;28;20416;-70
2023/12/06 05:50:25;;;;;;;17.20;14.53;;;;;;;;;;5009609;28;20404;-70
2023/12/06 05:52:51;;;;;;;15.85;13.07;;;;;;;;;;5001004;28;20457;-70
2023/12/06 05:55:16;;;;;;;15.52;13.02;;;;;;;;;;5014279;28;20990;-69
2023/12/06 05:57:42;;;;;;;14.93;12.47;;;;;;;;;;5021411;28;20418;-69
2023/12/06 06:00:12;;;;;;;14.57;12.03;;;;;;;;;;5021434;28;20750;-70
2023/12/06 06:02:37;;;;;;;14.45;12.20;;;;;;;;;;5012399;28;20409;-69
2023/12/06 06:05:03;;;;;;;14.53;11.83;;;;;;;;;;5020810;28;20430;-69
2023/12/06 06:07:28;;;;;;;13.18;11.20;;;;;;;;;;5021595;28;20941;-69
2023/12/06 06:09:53;;;;;;;14.70;12.20;;;;;;;;;;5019295;28;20425;-69
2023/12/06 06:12:19;;;;;;;13.77;11.63;;;;;;;;;;5006393;28;20698;-69
2023/12/06 06:14:44;;;;;;;13.70;11.05;;;;;;;;;;5014061;28;20859;-69
2023/12/06 06:17:09;;;;;;;14.03;11.60;;;;;;;;;;5012729;28;20947;-69
2023/12/06 06:19:35;;;;;;;12.10;10.70;;;;;;;;;;5015969;28;20903;-69
2023/12/06 06:22:00;;;;;;;13.70;10.93;;;;;;;;;;5001997;28;20447;-68
2023/12/06 06:24:25;;;;;;;12.73;10.47;;;;;;;;;;5001144;28;20384;-69
2023/12/06 06:26:51;;;;;;;13.20;10.80;;;;;;;;;;5008234;28;20408;-69
2023/12/06 06:29:16;;;;;;;12.95;10.43;;;;;;;;;;5011990;28;20423;-69
2023/12/06 06:31:41;;;;;;;12.60;10.53;;;;;;;;;;5020464;28;20835;-68
2023/12/06 06:34:07;;;;;;;11.10;9.60;;;;;;;;;;5017509;28;20441;-68
2023/12/06 06:36:32;;;;;;;13.37;10.53;;;;;;;;;;5013998;28;20426;-68
2023/12/06 06:38:58;;;;;;;12.55;10.27;;;;;;;;;;5013045;28;20403;-69
2023/12/06 06:41:27;;;;;;;13.70;10.90;;;;;;;;;;5016132;28;20402;-69
2023/12/06 06:43:52;;;;;;;13.23;10.68;;;;;;;;;;5016535;28;20419;-69
2023/12/06 06:46:17;;;;;;;12.30;10.03;;;;;;;;;;5000647;28;20401;-69
2023/12/06 06:48:43;;;;;;;13.67;11.30;;;;;;;;;;5006967;28;20407;-69
2023/12/06 06:51:09;;;;;;;12.63;10.37;;;;;;;;;;5020682;28;20802;-69
2023/12/06 06:53:34;;;;;;;13.15;10.60;;;;;;;;;;5020663;28;21019;-68
2023/12/06 06:56:00;;;;;;;12.55;10.50;;;;;;;;;;5019912;28;20762;-69
2023/12/06 06:58:25;;;;;;;14.20;10.80;;;;;;;;;;5010996;28;20399;-68
2023/12/06 07:00:50;;;;;;;15.83;12.50;;;;;;;;;;4993214;28;20436;-68
2023/12/06 07:03:15;;;;;;;14.50;11.37;;;;;;;;;;4998088;28;20451;-68
2023/12/06 07:05:41;;;;;;;13.70;11.45;;;;;;;;;;5001253;28;20514;-68
2023/12/06 07:08:06;;;;;;;14.50;11.83;;;;;;;;;;5000428;28;20447;-68
2023/12/06 07:10:34;;;;;;;15.53;12.30;;;;;;;;;;5008506;28;20404;-66
2023/12/06 07:12:59;;;;;;;15.43;12.27;;;;;;;;;;5029479;28;21009;-67
2023/12/06 07:15:25;;;;;;;14.90;11.80;;;;;;;;;;5028891;28;20502;-68
2023/12/06 07:17:51;;;;;;;15.83;12.57;;;;;;;;;;5029161;28;20926;-66
2023/12/06 07:20:17;;;;;;;17.83;13.70;;;;;;;;;;5036245;28;20397;-66
2023/12/06 07:22:42;;;;;;;16.00;13.40;;;;;;;;;;5035807;28;20461;-65
2023/12/06 07:25:08;;;;;;;17.00;13.80;;;;;;;;;;5029201;28;20440;-67
2023/12/06 07:27:33;;;;;;;17.40;14.00;;;;;;;;;;5027458;28;20395;-68
2023/12/06 07:29:58;;;;;;;15.37;13.13;;;;;;;;;;5030241;28;20411;-68
2023/12/06 07:32:24;;;;;;;16.73;13.20;;;;;;;;;;5030072;28;20905;-67
2023/12/06 07:34:49;;;;;;;17.10;14.07;;;;;;;;;;5028948;28;20503;-67
2023/12/06 07:37:14;;;;;;;17.50;14.60;;;;;;;;;;5029343;28;20403;-67
2023/12/06 07:39:40;;;;;;;19.50;15.37;;;;;;;;;;5029399;28;20469;-68
2023/12/06 07:42:05;;;;;;;17.70;14.38;;;;;;;;;;5027928;28;20941;-67
2023/12/06 07:44:31;;;;;;;21.10;16.13;;;;;;;;;;5029727;28;20514;-66
2023/12/06 07:46:56;;;;;;;17.97;14.27;;;;;;;;;;5029392;28;20408;-68
2023/12/06 07:49:21;;;;;;;18.75;14.13;;;;;;;;;;5028356;28;20485;-68
2023/12/06 07:51:47;;;;;;;16.77;12.90;;;;;;;;;;5029452;28;20398;-69
2023/12/06 07:54:12;;;;;;;18.57;14.47;;;;;;;;;;5029175;28;20391;-67
2023/12/06 07:56:37;;;;;;;18.40;13.90;;;;;;;;;;5028773;28;20387;-67
2023/12/06 07:59:02;;;;;;;18.87;14.53;;;;;;;;;;5029341;28;20489;-67
2023/12/06 08:01:31;;;;;;;18.47;13.80;;;;;;;;;;5029339;28;20395;-67
2023/12/06 08:03:57;;;;;;;18.65;13.50;;;;;;;;;;5026030;28;20764;-67
2023/12/06 08:06:23;;;;;;;17.85;13.30;;;;;;;;;;5038853;28;20404;-67
2023/12/06 08:08:55;;;;;;;19.25;14.30;;;;;;;;;;5044013;28;20878;-69
2023/12/06 08:11:21;;;;;;;15.50;12.90;;;;;;;;;;5045393;28;20425;-70
2023/12/06 08:13:46;;;;;;;17.87;14.07;;;;;;;;;;5038408;28;20440;-69
2023/12/06 08:16:11;;;;;;;16.57;12.77;;;;;;;;;;5049036;28;20417;-68
2023/12/06 08:18:37;;;;;;;19.10;14.53;;;;;;;;;;5048467;28;20381;-69
2023/12/06 08:21:04;;;;;;;17.03;13.40;;;;;;;;;;5035458;28;20396;-67
2023/12/06 08:23:29;;;;;;;16.33;13.15;;;;;;;;;;5058361;28;20391;-67
2023/12/06 08:25:54;;;;;;;19.70;14.40;;;;;;;;;;5051907;28;20979;-68
2023/12/06 08:28:20;;;;;;;17.57;14.07;;;;;;;;;;5049053;28;20390;-67
2023/12/06 08:30:45;;;;;;;18.25;14.25;;;;;;;;;;5048867;28;20409;-68
2023/12/06 08:33:13;;;;;;;18.70;12.80;;;;;;;;;;5048975;28;20402;-67
2023/12/06 08:35:39;;;;;;;18.27;13.55;;;;;;;;;;5049376;28;20872;-67
2023/12/06 08:38:05;;;;;;;18.38;13.85;;;;;;;;;;5048272;28;20485;-67
2023/12/06 08:40:30;;;;;;;20.87;13.87;;;;;;;;;;5048983;28;20394;-68
2023/12/06 08:42:55;;;;;;;18.63;13.52;;;;;;;;;;5049604;28;20406;-67
2023/12/06 08:45:21;;;;;;;18.00;13.63;;;;;;;;;;5047084;28;20792;-67
2023/12/06 08:47:46;;;;;;;17.20;12.37;;;;;;;;;;5049304;28;20401;-67
2023/12/06 08:50:14;;;;;;;16.40;12.87;;;;;;;;;;5048951;28;20405;-67
2023/12/06 08:52:40;;;;;;;19.33;13.52;;;;;;;;;;5050409;28;20389;-67
2023/12/06 08:55:06;;;;;;;19.80;12.63;;;;;;;;;;5052516;28;20424;-67
2023/12/06 08:57:31;;;;;;;16.27;12.43;;;;;;;;;;5053080;28;20888;-67
2023/12/06 08:59:56;;;;;;;16.57;12.80;;;;;;;;;;5052323;28;20512;-67
2023/12/06 09:02:21;;;;;;;15.93;11.85;;;;;;;;;;5052481;28;20385;-67
2023/12/06 09:04:47;;;;;;;16.17;12.27;;;;;;;;;;5053188;28;20820;-68
2023/12/06 09:07:12;;;;;;;14.03;11.20;;;;;;;;;;5051291;28;20429;-67
2023/12/06 09:09:37;;;;;;;16.70;12.33;;;;;;;;;;5052778;28;20435;-67
2023/12/06 09:12:03;;;;;;;17.83;13.07;;;;;;;;;;5052471;28;20406;-67
2023/12/06 09:14:28;;;;;;;19.17;14.67;;;;;;;;;;5052011;28;21054;-68
2023/12/06 09:16:53;;;;;;;18.63;12.57;;;;;;;;;;5052852;28;20440;-68
2023/12/06 09:19:19;;;;;;;17.97;13.33;;;;;;;;;;5052200;28;20397;-68
2023/12/06 09:21:45;;;;;;;17.20;12.15;;;;;;;;;;5051744;28;20394;-68
2023/12/06 09:24:11;;;;;;;18.65;14.68;;;;;;;;;;5050275;28;20514;-68
2023/12/06 09:26:37;;;;;;;68.85;33.85;;;;;;;;;;5052470;28;20488;-68
2023/12/06 09:29:03;;;;;;;63.00;32.23;;;;;;;;;;5051144;28;20421;-67
2023/12/06 09:31:28;;;;;;;42.50;24.70;;;;;;;;;;5052116;28;20390;-67
2023/12/06 09:33:53;;;;;;;17.05;12.27;;;;;;;;;;5051439;28;20536;-66
2023/12/06 09:36:19;;;;;;;17.87;11.53;;;;;;;;;;5052052;28;20413;-67
2023/12/06 09:38:44;;;;;;;15.87;11.00;;;;;;;;;;5051967;28;20527;-65
2023/12/06 09:41:09;;;;;;;15.03;9.53;;;;;;;;;;5051046;28;20454;-66
2023/12/06 09:43:36;;;;;;;16.03;10.77;;;;;;;;;;5052064;28;20430;-67
2023/12/06 09:46:03;;;;;;;13.15;9.43;;;;;;;;;;5051754;28;20398;-65
2023/12/06 09:48:29;;;;;;;15.10;9.97;;;;;;;;;;5051466;28;20466;-66
2023/12/06 09:50:54;;;;;;;13.48;9.05;;;;;;;;;;5052182;28;20394;-66
2023/12/06 09:53:21;;;;;;;14.83;10.23;;;;;;;;;;5051107;28;20406;-66
2023/12/06 09:55:47;;;;;;;14.75;9.98;;;;;;;;;;5033524;28;20405;-66
2023/12/06 09:58:15;;;;;;;12.88;9.27;;;;;;;;;;5051253;28;20412;-65
2023/12/06 10:00:40;;;;;;;16.77;9.35;;;;;;;;;;5051207;28;20901;-66
2023/12/06 10:03:07;;;;;;;16.07;10.20;;;;;;;;;;5049846;28;20404;-66
2023/12/06 10:05:33;;;;;;;14.13;10.57;;;;;;;;;;5033968;28;20421;-66
2023/12/06 10:07:58;;;;;;;13.15;9.60;;;;;;;;;;5051354;28;20437;-66
2023/12/06 10:10:23;;;;;;;13.40;9.97;;;;;;;;;;5050366;28;20396;-66
2023/12/06 10:12:49;;;;;;;12.53;9.43;;;;;;;;;;5051943;28;20409;-65
2023/12/06 10:15:15;;;;;;;11.90;8.77;;;;;;;;;;5051012;28;20738;-66
2023/12/06 10:17:41;;;;;;;13.45;9.57;;;;;;;;;;5050988;28;20428;-66
2023/12/06 10:20:06;;;;;;;14.47;9.30;;;;;;;;;;5051321;28;20417;-66
2023/12/06 10:22:31;;;;;;;11.52;8.60;;;;;;;;;;5051541;28;20749;-66
2023/12/06 10:24:57;;;;;;;15.13;10.43;;;;;;;;;;5032649;28;20393;-66
2023/12/06 10:27:23;;;;;;;13.03;9.07;;;;;;;;;;5050056;28;20466;-65
2023/12/06 10:29:50;;;;;;;14.50;9.30;;;;;;;;;;5050975;28;20428;-65
2023/12/06 10:32:16;;;;;;;13.07;9.35;;;;;;;;;;5050230;28;20410;-65
2023/12/06 10:34:41;;;;;;;12.70;8.57;;;;;;;;;;5051387;28;20749;-65
2023/12/06 10:37:06;;;;;;;11.43;7.93;;;;;;;;;;5049969;28;20547;-65
2023/12/06 10:39:32;;;;;;;13.13;8.82;;;;;;;;;;5050818;28;20879;-65
2023/12/06 10:41:57;;;;;;;12.00;8.33;;;;;;;;;;5033581;28;20424;-66
2023/12/06 10:44:23;;;;;;;15.20;9.47;;;;;;;;;;5049570;28;20397;-66
2023/12/06 10:46:48;;;;;;;12.30;7.83;;;;;;;;;;5033218;28;20734;-65
2023/12/06 10:49:14;;;;;;;11.30;8.20;;;;;;;;;;5050376;28;20394;-66
2023/12/06 10:51:39;;;;;;;11.10;8.30;;;;;;;;;;5032266;28;20486;-65
2023/12/06 10:54:05;;;;;;;11.57;7.50;;;;;;;;;;5049617;28;20417;-65
2023/12/06 10:56:30;;;;;;;13.52;8.25;;;;;;;;;;5033008;28;20425;-64
2023/12/06 10:58:56;;;;;;;11.33;7.70;;;;;;;;;;5050312;28;20897;-66
2023/12/06 11:01:22;;;;;;;19.20;12.38;;;;;;;;;;5049997;28;20966;-66
2023/12/06 11:03:47;;;;;;;10.00;7.50;;;;;;;;;;5032568;28;20400;-66
2023/12/06 11:06:18;;;;;;;14.20;10.05;;;;;;;;;;5048937;28;20419;-67
2023/12/06 11:08:47;;;;;;;19.25;12.25;;;;;;;;;;5032304;28;20416;-68
2023/12/06 11:11:15;;;;;;;13.10;7.90;;;;;;;;;;5050252;28;20402;-67
2023/12/06 11:13:49;;;;;;;13.82;8.07;;;;;;;;;;5049672;28;20485;-67
2023/12/06 11:16:14;;;;;;;14.43;10.73;;;;;;;;;;5049384;28;20397;-67
2023/12/06 11:18:43;;;;;;;11.73;8.05;;;;;;;;;;5050390;28;20405;-67
2023/12/06 11:21:08;;;;;;;14.50;9.52;;;;;;;;;;5048445;28;20411;-67
2023/12/06 11:23:35;;;;;;;12.50;9.20;;;;;;;;;;5050085;28;20401;-67
2023/12/06 11:26:00;;;;;;;24.15;16.25;;;;;;;;;;5049706;28;20397;-67
2023/12/06 11:28:26;;;;;;;14.40;8.27;;;;;;;;;;5049371;28;20737;-66
2023/12/06 11:30:53;;;;;;;29.23;17.38;;;;;;;;;;5032510;28;20402;-67
2023/12/06 11:33:19;;;;;;;14.93;10.15;;;;;;;;;;5049035;28;20745;-66
2023/12/06 11:35:44;;;;;;;22.23;15.60;;;;;;;;;;5032354;28;20402;-67
2023/12/06 11:38:10;;;;;;;12.52;8.10;;;;;;;;;;5049276;28;20404;-67
2023/12/06 11:40:35;;;;;;;13.37;9.80;;;;;;;;;;5049270;28;20889;-68
2023/12/06 11:43:01;;;;;;;13.50;9.13;;;;;;;;;;5049694;28;20978;-67
2023/12/06 11:45:27;;;;;;;10.88;7.05;;;;;;;;;;5049768;28;20476;-66
2023/12/06 11:47:52;;;;;;;10.55;6.82;;;;;;;;;;5049064;28;20413;-67
2023/12/06 11:50:18;;;;;;;9.80;6.20;;;;;;;;;;5049474;28;20405;-66
2023/12/06 11:52:46;;;;;;;11.20;6.93;;;;;;;;;;5049799;28;20489;-66
2023/12/06 11:55:12;;;;;;;9.15;6.40;;;;;;;;;;5048369;28;20424;-66
2023/12/06 11:57:56;;;;;;;8.90;6.10;;;;;;;;;;5031262;28;20436;-66
2023/12/06 12:00:21;;;;;;;10.00;6.40;;;;;;;;;;5031374;28;20439;-66
2023/12/06 12:02:47;;;;;;;10.80;6.80;;;;;;;;;;5048887;28;20760;-67
2023/12/06 12:05:12;;;;;;;9.67;6.27;;;;;;;;;;5031439;28;20744;-66
2023/12/06 12:07:37;;;;;;;10.70;6.50;;;;;;;;;;5049335;28;20398;-67
2023/12/06 12:10:03;;;;;;;11.25;6.40;;;;;;;;;;5048347;28;20405;-67
2023/12/06 12:12:35;;;;;;;9.50;6.23;;;;;;;;;;5049149;28;20878;-67
2023/12/06 12:15:01;;;;;;;16.88;12.27;;;;;;;;;;5048997;28;20402;-66
2023/12/06 12:17:26;;;;;;;12.40;7.47;;;;;;;;;;5049950;28;20420;-66
2023/12/06 12:19:52;;;;;;;9.43;6.53;;;;;;;;;;5060993;28;20400;-67
2023/12/06 12:22:17;;;;;;;8.82;6.40;;;;;;;;;;5057151;28;20447;-66
2023/12/06 12:24:42;;;;;;;11.33;6.80;;;;;;;;;;5048984;28;20409;-67
2023/12/06 12:27:08;;;;;;;10.60;6.40;;;;;;;;;;5051612;28;20401;-66
2023/12/06 12:29:33;;;;;;;10.67;6.60;;;;;;;;;;5053553;28;20416;-66
2023/12/06 12:31:59;;;;;;;9.13;6.60;;;;;;;;;;5035362;28;20408;-66
2023/12/06 12:34:24;;;;;;;8.90;6.20;;;;;;;;;;5053083;28;20718;-66
2023/12/06 12:36:49;;;;;;;9.60;6.80;;;;;;;;;;5052820;28;20402;-67
2023/12/06 12:39:14;;;;;;;10.97;6.57;;;;;;;;;;5052599;28;20884;-66
2023/12/06 12:41:42;;;;;;;9.07;6.47;;;;;;;;;;5035732;28;20436;-67
2023/12/06 12:44:08;;;;;;;9.33;6.10;;;;;;;;;;5034315;28;20443;-66
2023/12/06 12:46:35;;;;;;;9.40;6.30;;;;;;;;;;5035667;28;21012;-67
2023/12/06 12:49:01;;;;;;;9.43;6.07;;;;;;;;;;5052677;28;20807;-66
2023/12/06 12:51:26;;;;;;;9.50;6.10;;;;;;;;;;5052670;28;20444;-67
2023/12/06 12:53:51;;;;;;;10.33;6.20;;;;;;;;;;5052948;28;20427;-67
2023/12/06 12:56:17;;;;;;;10.43;6.17;;;;;;;;;;5034863;28;20389;-67
2023/12/06 12:58:43;;;;;;;10.18;6.10;;;;;;;;;;5052520;28;20401;-67
2023/12/06 13:01:08;;;;;;;11.07;6.43;;;;;;;;;;5052289;28;20765;-66
2023/12/06 13:03:34;;;;;;;9.50;6.50;;;;;;;;;;5052941;28;20474;-67
2023/12/06 13:05:59;;;;;;;11.10;6.87;;;;;;;;;;5052208;28;20406;-67
2023/12/06 13:08:29;;;;;;;10.95;6.82;;;;;;;;;;5051637;28;20424;-66
2023/12/06 13:10:54;;;;;;;11.45;6.85;;;;;;;;;;5052699;28;20398;-67
2023/12/06 13:13:19;;;;;;;12.47;7.40;;;;;;;;;;5051302;28;20400;-66
2023/12/06 13:15:45;;;;;;;10.50;6.90;;;;;;;;;;5052674;28;20483;-67
2023/12/06 13:18:10;;;;;;;11.73;7.05;;;;;;;;;;5052220;28;20479;-66
2023/12/06 13:20:35;;;;;;;11.90;7.43;;;;;;;;;;5051940;28;20471;-66
2023/12/06 13:23:01;;;;;;;9.77;6.60;;;;;;;;;;5051969;28;20409;-66
2023/12/06 13:25:26;;;;;;;10.52;6.82;;;;;;;;;;5052525;28;20932;-67
2023/12/06 13:27:52;;;;;;;11.80;6.70;;;;;;;;;;5051739;28;20413;-67
2023/12/06 13:30:17;;;;;;;12.40;6.37;;;;;;;;;;5052092;28;20954;-66
2023/12/06 13:32:43;;;;;;;10.55;6.40;;;;;;;;;;5052497;28;20484;-66
2023/12/06 13:35:10;;;;;;;10.53;6.70;;;;;;;;;;5050943;28;20428;-67
2023/12/06 13:37:35;;;;;;;9.40;6.28;;;;;;;;;;5051383;28;20404;-67
2023/12/06 13:40:00;;;;;;;11.23;6.53;;;;;;;;;;5051408;28;20484;-66
2023/12/06 13:42:26;;;;;;;11.02;7.10;;;;;;;;;;5052352;28;20385;-67
2023/12/06 13:44:51;;;;;;;11.00;6.33;;;;;;;;;;5052086;28;20394;-67
2023/12/06 13:47:16;;;;;;;14.40;7.07;;;;;;;;;;5050281;28;20434;-67
2023/12/06 13:49:42;;;;;;;13.10;6.33;;;;;;;;;;5051633;28;20488;-67
2023/12/06 13:52:07;;;;;;;9.50;5.90;;;;;;;;;;5049484;28;20394;-66
2023/12/06 13:54:34;;;;;;;9.60;6.30;;;;;;;;;;5049366;28;20408;-67
2023/12/06 13:57:00;;;;;;;9.43;6.18;;;;;;;;;;5052077;28;20416;-65
2023/12/06 13:59:25;;;;;;;10.45;5.70;;;;;;;;;;5051351;28;20428;-65
2023/12/06 14:01:54;;;;;;;9.90;6.23;;;;;;;;;;5051075;28;20452;-65
2023/12/06 14:04:19;;;;;;;10.00;6.28;;;;;;;;;;5051389;28;20799;-65
2023/12/06 14:06:45;;;;;;;11.60;6.20;;;;;;;;;;5051404;28;20471;-65
2023/12/06 14:09:10;;;;;;;11.67;6.80;;;;;;;;;;5050648;28;20404;-65
2023/12/06 14:11:36;;;;;;;9.43;5.90;;;;;;;;;;5048543;28;20394;-65